»·PEaware :: CGMWT CYVR-KSEA

CGMWT :: CYVR-KSEA

FLIGHT INFORMATION

Flight Status: Arrived
Operator: Unknown
More flights by this operator :: More flights under this callsign
Pilot: Konrad W. (32064)
Aircraft: Diamond DA-40
(DA40)
More flights by this aircraft type
Origin: CYVR Vancouver Intl
Canada
Destination: KSEA Seattle-Tacoma Intl
United States
More flights between these airports :: More routes between these airports
Route: +
File this flight plan on PilotEdge
Remarks:
Altitude:
(Current/Filed)
3,500ft
Speed:
(Current/Filed)
0kts
Departed: 22-Oct-20 07:49 PM
Arrived: 22-Oct-20 08:35 PM
Distance/Time
Traveled:
111nm/0:46
Distance/Time
To Go:
Arrived

Flight Plot

Page will automatically refresh every two minutes.

Flight plan parsing failed; only flown route is shown


Map Options




Map Legend


Flown Route
Filed Route
Departure Airport
Arrival Airport
Navaid (VOR, NDB)
Fix

Horizontal Profiles

Position Reports

Time Latitude Longitude Heading Altitude Ground
Speed
22-Oct-20 19:48 48.772581 -122.691233 142 5380ft 117kts
22-Oct-20 19:48 48.746480 -122.680615 168 5375ft 118kts
22-Oct-20 19:50 48.708690 -122.670238 168 5373ft 118kts
22-Oct-20 19:50 48.684360 -122.651766 146 5374ft 119kts
22-Oct-20 19:51 48.656084 -122.624798 146 5372ft 120kts
22-Oct-20 19:52 48.628373 -122.598318 146 5374ft 117kts
22-Oct-20 19:53 48.600781 -122.571918 146 5376ft 117kts
22-Oct-20 19:54 48.573206 -122.545428 146 5376ft 117kts
22-Oct-20 19:55 48.545941 -122.519219 146 5377ft 117kts
22-Oct-20 19:56 48.518476 -122.492966 152 5377ft 117kts
22-Oct-20 19:57 48.486289 -122.484403 170 5379ft 117kts
22-Oct-20 19:58 48.453861 -122.476997 170 5381ft 118kts
22-Oct-20 19:59 48.421396 -122.469554 170 5382ft 118kts
22-Oct-20 20:00 48.388767 -122.462072 170 5362ft 118kts
22-Oct-20 20:01 48.356072 -122.454483 170 5356ft 118kts
22-Oct-20 20:02 48.323530 -122.446850 170 5357ft 118kts
22-Oct-20 20:03 48.291057 -122.439173 170 5378ft 117kts
22-Oct-20 20:04 48.258523 -122.431574 170 5385ft 118kts
22-Oct-20 20:05 48.225982 -122.423849 170 5384ft 118kts
22-Oct-20 20:06 48.193343 -122.416066 170 5385ft 119kts
22-Oct-20 20:07 48.160588 -122.408293 170 5386ft 119kts
22-Oct-20 20:08 48.127952 -122.400531 170 5395ft 118kts
22-Oct-20 20:09 48.095192 -122.392728 170 5399ft 119kts
22-Oct-20 20:10 48.062534 -122.384903 170 5395ft 119kts
22-Oct-20 20:11 48.029762 -122.377040 170 5400ft 119kts
22-Oct-20 20:12 47.996844 -122.369142 170 5399ft 119kts
22-Oct-20 20:13 47.964541 -122.361335 170 5398ft 119kts
22-Oct-20 20:14 47.931380 -122.360186 185 5399ft 119kts
22-Oct-20 20:15 47.898135 -122.365059 185 5399ft 120kts
22-Oct-20 20:16 47.865572 -122.369702 185 5399ft 115kts
22-Oct-20 20:17 47.833872 -122.374117 185 5398ft 114kts
22-Oct-20 20:18 47.802196 -122.378476 185 5349ft 118kts
22-Oct-20 20:19 47.766795 -122.383240 185 4840ft 131kts
22-Oct-20 20:20 47.730585 -122.388044 185 4343ft 131kts
22-Oct-20 20:21 47.694496 -122.392698 185 3850ft 130kts
22-Oct-20 20:22 47.658836 -122.397284 185 3441ft 123kts
22-Oct-20 20:23 47.626655 -122.401320 185 3419ft 113kts
22-Oct-20 20:24 47.595463 -122.405193 185 3418ft 112kts
22-Oct-20 20:25 47.564484 -122.409107 185 3417ft 112kts
22-Oct-20 20:26 47.532520 -122.413228 185 3416ft 120kts
22-Oct-20 20:27 47.499786 -122.417511 185 3417ft 121kts
22-Oct-20 20:28 47.466192 -122.421820 178 3415ft 121kts
22-Oct-20 20:29 47.455240 -122.379256 99 3148ft 127kts
22-Oct-20 20:30 47.434327 -122.344055 180 2251ft 127kts
22-Oct-20 20:31 47.401827 -122.340728 117 1481ft 103kts
22-Oct-20 20:32 47.410811 -122.313266 9 842ft 90kts
22-Oct-20 20:33 47.434832 -122.311301 1 514ft 86kts
22-Oct-20 20:34 47.446466 -122.312733 274 384ft 0kts
22-Oct-20 20:35 47.441889 -122.313581 180 368ft 38kts
22-Oct-20 20:36 47.439570 -122.315570 94 372ft 0kts

Navigation Log

Ident Type
Flight plan parsing failed, navigation log unavailable